createdAt,value
2018-07-25T00:01:57.962Z,5.97
2018-07-25T00:04:26.352Z,5.37
2018-07-25T00:06:54.744Z,5.70
2018-07-25T00:09:23.110Z,5.57
2018-07-25T00:11:51.402Z,5.47
2018-07-25T00:14:20.138Z,5.73
2018-07-25T00:16:48.478Z,5.30
2018-07-25T00:19:16.774Z,5.57
2018-07-25T00:21:45.067Z,6.10
2018-07-25T00:24:13.388Z,5.37
2018-07-25T00:26:41.641Z,5.87
2018-07-25T00:29:10.125Z,6.10
2018-07-25T00:31:38.425Z,6.13
2018-07-25T00:34:06.724Z,6.27
2018-07-25T00:36:35.009Z,6.00
2018-07-25T00:39:03.664Z,5.53
2018-07-25T00:41:32.088Z,5.67
2018-07-25T00:44:00.420Z,6.47
2018-07-25T00:46:28.718Z,5.87
2018-07-25T00:48:57.033Z,6.57
2018-07-25T00:51:25.422Z,6.93
2018-07-25T00:53:53.791Z,7.00
2018-07-25T00:56:22.134Z,7.10
2018-07-25T00:58:50.403Z,7.03
2018-07-25T01:01:18.671Z,6.40
2018-07-25T01:03:46.946Z,6.80
2018-07-25T01:06:15.212Z,7.53
2018-07-25T01:08:43.628Z,6.30
2018-07-25T01:11:11.876Z,7.00
2018-07-25T01:13:40.266Z,7.03
2018-07-25T01:16:08.766Z,7.30
2018-07-25T01:18:37.145Z,7.47
2018-07-25T01:21:05.417Z,7.70
2018-07-25T01:23:33.668Z,7.80
2018-07-25T01:26:01.938Z,7.97
2018-07-25T01:28:30.186Z,8.13
2018-07-25T01:30:58.219Z,7.13
2018-07-25T01:33:26.548Z,7.60
2018-07-25T01:35:54.813Z,7.53
2018-07-25T01:38:23.067Z,7.60
2018-07-25T01:40:51.344Z,8.63
2018-07-25T01:43:19.611Z,8.43
2018-07-25T01:45:47.938Z,8.20
2018-07-25T01:48:16.421Z,7.90
2018-07-25T01:50:44.702Z,8.43
2018-07-25T01:53:13.039Z,8.20
2018-07-25T01:55:41.312Z,9.17
2018-07-25T01:58:09.618Z,8.97
2018-07-25T02:00:37.901Z,8.37
2018-07-25T02:03:06.712Z,10.03
2018-07-25T02:05:35.158Z,9.67
2018-07-25T02:08:03.449Z,9.77
2018-07-25T02:10:35.332Z,9.60
2018-07-25T02:13:03.611Z,9.10
2018-07-25T02:15:31.964Z,10.07
2018-07-25T02:18:00.224Z,10.60
2018-07-25T02:20:28.502Z,10.17
2018-07-25T02:22:56.782Z,9.80
2018-07-25T02:25:25.126Z,10.40
2018-07-25T02:27:53.874Z,9.53
2018-07-25T02:30:22.131Z,9.97
2018-07-25T02:32:50.588Z,11.00
2018-07-25T02:35:18.880Z,9.27
2018-07-25T02:37:47.146Z,10.93
2018-07-25T02:40:15.436Z,10.90
2018-07-25T02:42:43.800Z,10.97
2018-07-25T02:45:12.083Z,11.57
2018-07-25T02:47:40.419Z,11.60
2018-07-25T02:50:08.690Z,12.90
2018-07-25T02:52:37.014Z,12.30
2018-07-25T02:55:05.968Z,11.97
2018-07-25T02:57:34.548Z,13.27
2018-07-25T03:00:02.595Z,12.20
2018-07-25T03:02:30.912Z,12.13
2018-07-25T03:04:59.176Z,14.13
2018-07-25T03:07:27.262Z,13.97
2018-07-25T03:09:55.309Z,13.10
2018-07-25T03:12:23.627Z,12.17
2018-07-25T03:14:51.918Z,12.00
2018-07-25T03:17:20.196Z,13.33
2018-07-25T03:19:48.466Z,13.53
2018-07-25T03:22:16.742Z,13.87
2018-07-25T03:24:45.204Z,13.40
2018-07-25T03:27:13.489Z,14.40
2018-07-25T03:29:41.860Z,13.50
2018-07-25T03:32:10.235Z,15.97
2018-07-25T03:34:38.529Z,15.30
2018-07-25T03:37:06.990Z,15.83
2018-07-25T03:39:35.254Z,15.70
2018-07-25T03:42:03.291Z,16.83
2018-07-25T03:44:31.556Z,15.33
2018-07-25T03:46:59.896Z,15.27
2018-07-25T03:49:28.152Z,17.00
2018-07-25T03:51:56.420Z,16.53
2018-07-25T03:54:24.711Z,16.37
2018-07-25T03:56:52.986Z,16.20
2018-07-25T03:59:21.282Z,16.07
2018-07-25T04:01:49.570Z,16.70
2018-07-25T04:04:18.134Z,16.10
2018-07-25T04:06:46.480Z,15.37
2018-07-25T04:09:14.816Z,15.93
2018-07-25T04:11:43.376Z,17.23
2018-07-25T04:14:11.744Z,17.70
2018-07-25T04:16:40.041Z,16.50
2018-07-25T04:19:08.450Z,18.43
2018-07-25T04:21:36.737Z,16.90
2018-07-25T04:24:05.177Z,16.53
2018-07-25T04:26:33.697Z,17.73
2018-07-25T04:29:01.897Z,17.10
2018-07-25T04:31:30.437Z,16.43
2018-07-25T04:33:58.879Z,17.20
2018-07-25T04:36:27.176Z,18.03
2018-07-25T04:38:55.577Z,17.10
2018-07-25T04:41:24.019Z,18.13
2018-07-25T04:43:52.307Z,17.93
2018-07-25T04:46:20.682Z,17.23
2018-07-25T04:48:48.984Z,15.60
2018-07-25T04:51:17.293Z,15.30
2018-07-25T04:53:45.483Z,15.60
2018-07-25T04:56:13.850Z,15.37
2018-07-25T04:58:42.138Z,15.20
2018-07-25T05:01:10.420Z,13.90
2018-07-25T05:03:39.681Z,14.23
2018-07-25T05:06:07.725Z,19.50
2018-07-25T05:08:36.012Z,15.33
2018-07-25T05:11:04.339Z,13.77
2018-07-25T05:13:32.631Z,12.77
2018-07-25T05:16:00.898Z,13.47
2018-07-25T05:18:29.178Z,12.63
2018-07-25T05:20:57.463Z,12.73
2018-07-25T05:23:25.846Z,12.00
2018-07-25T05:25:54.267Z,12.40
2018-07-25T05:28:22.621Z,12.70
2018-07-25T05:30:50.896Z,12.30
2018-07-25T05:33:19.218Z,12.67
2018-07-25T05:35:47.523Z,13.00
2018-07-25T05:38:15.959Z,14.37
2018-07-25T05:40:44.340Z,12.97
2018-07-25T05:43:12.750Z,11.87
2018-07-25T05:45:41.120Z,10.90
2018-07-25T05:48:09.396Z,9.87
2018-07-25T05:50:37.660Z,9.77
2018-07-25T05:53:05.984Z,9.67
2018-07-25T05:55:35.265Z,9.83
2018-07-25T05:58:03.586Z,9.10
2018-07-25T06:00:31.880Z,8.97
2018-07-25T06:03:00.275Z,9.97
2018-07-25T06:05:28.472Z,9.80
2018-07-25T06:07:56.716Z,8.63
2018-07-25T06:10:25.097Z,9.53
2018-07-25T06:12:53.518Z,9.47
2018-07-25T06:15:21.867Z,9.70
2018-07-25T06:17:50.171Z,10.63
2018-07-25T06:20:18.467Z,10.87
2018-07-25T06:22:46.846Z,10.30
2018-07-25T06:25:15.231Z,10.40
2018-07-25T06:27:43.579Z,10.43
2018-07-25T06:30:11.906Z,11.03
2018-07-25T06:32:40.196Z,11.77
2018-07-25T06:35:08.380Z,11.77
2018-07-25T06:37:36.674Z,11.30
2018-07-25T06:40:05.710Z,11.73
2018-07-25T06:42:33.990Z,9.63
2018-07-25T06:45:02.534Z,10.27
2018-07-25T06:47:30.802Z,10.07
2018-07-25T06:49:59.148Z,10.40
2018-07-25T06:52:27.214Z,10.57
2018-07-25T06:54:55.255Z,10.37
2018-07-25T06:57:23.557Z,13.80
2018-07-25T06:59:51.862Z,9.23
2018-07-25T07:02:20.172Z,8.20
2018-07-25T07:04:48.442Z,9.43
2018-07-25T07:07:16.882Z,8.67
2018-07-25T07:09:44.975Z,11.17
2018-07-25T07:12:13.335Z,9.30
2018-07-25T07:14:41.602Z,7.57
2018-07-25T07:17:09.994Z,8.17
2018-07-25T07:19:38.286Z,9.70
2018-07-25T07:22:06.562Z,10.20
2018-07-25T07:24:35.019Z,8.60
2018-07-25T07:27:03.311Z,10.27
2018-07-25T07:29:31.603Z,9.10
2018-07-25T07:31:59.854Z,9.03
2018-07-25T07:34:28.138Z,7.53
2018-07-25T07:36:56.522Z,8.03
2018-07-25T07:39:24.802Z,6.83
2018-07-25T07:41:53.108Z,8.37
2018-07-25T07:44:21.394Z,9.07
2018-07-25T07:46:49.732Z,7.83
2018-07-25T07:49:18.040Z,21.53
2018-07-25T07:51:46.324Z,8.23
2018-07-25T07:54:14.662Z,8.20
2018-07-25T07:56:43.004Z,9.33
2018-07-25T07:59:11.203Z,8.77
2018-07-25T08:01:39.520Z,8.00
2018-07-25T08:04:08.052Z,7.57
2018-07-25T08:06:36.562Z,7.07
2018-07-25T08:09:07.776Z,7.17
2018-07-25T08:11:36.074Z,6.40
2018-07-25T08:14:04.330Z,6.73
2018-07-25T08:16:32.668Z,6.87
2018-07-25T08:19:00.981Z,8.20
2018-07-25T08:21:29.279Z,6.83
2018-07-25T08:23:57.601Z,8.90
2018-07-25T08:26:25.924Z,9.37
2018-07-25T08:28:54.172Z,6.03
2018-07-25T08:31:22.547Z,6.53
2018-07-25T08:33:50.970Z,6.10
2018-07-25T08:36:19.326Z,6.77
2018-07-25T08:38:47.608Z,7.20
2018-07-25T08:41:15.978Z,5.83
2018-07-25T08:43:44.384Z,7.27
2018-07-25T08:46:13.114Z,6.23
2018-07-25T08:48:41.632Z,7.77
2018-07-25T08:51:10.038Z,10.03
2018-07-25T08:53:38.307Z,6.60
2018-07-25T08:56:06.724Z,6.70
2018-07-25T08:58:35.085Z,5.80
2018-07-25T09:01:03.598Z,7.53
2018-07-25T09:03:32.265Z,7.10
2018-07-25T09:06:00.547Z,5.93
2018-07-25T09:08:28.871Z,6.60
2018-07-25T09:10:57.263Z,9.60
2018-07-25T09:13:25.595Z,8.97
2018-07-25T09:15:53.990Z,5.90
2018-07-25T09:18:22.325Z,8.03
2018-07-25T09:20:50.647Z,7.43
2018-07-25T09:23:18.981Z,8.37
2018-07-25T09:25:47.266Z,5.83
2018-07-25T09:28:15.607Z,6.20
2018-07-25T09:30:43.979Z,7.57
2018-07-25T09:33:12.319Z,7.13
2018-07-25T09:35:40.428Z,7.00
2018-07-25T09:38:08.707Z,6.57
2018-07-25T09:40:37.023Z,6.40
2018-07-25T09:43:05.391Z,8.37
2018-07-25T09:45:33.789Z,5.80
2018-07-25T09:48:02.114Z,7.70
2018-07-25T09:50:30.476Z,6.80
2018-07-25T09:52:58.856Z,8.03
2018-07-25T09:55:27.134Z,7.70
2018-07-25T09:57:55.533Z,7.07
2018-07-25T10:00:29.108Z,7.97
2018-07-25T10:02:57.617Z,7.10
2018-07-25T10:05:26.001Z,10.13
2018-07-25T10:07:54.313Z,11.87
2018-07-25T10:10:22.352Z,7.27
2018-07-25T10:12:51.567Z,8.67
2018-07-25T10:15:19.984Z,6.57
2018-07-25T10:17:48.268Z,7.30
2018-07-25T10:20:16.542Z,7.57
2018-07-25T10:22:45.213Z,6.30
2018-07-25T10:25:13.594Z,7.70
2018-07-25T10:27:42.008Z,7.67
2018-07-25T10:30:10.450Z,6.60
2018-07-25T10:32:38.899Z,6.27
2018-07-25T10:35:07.157Z,6.57
2018-07-25T10:37:35.512Z,8.50
2018-07-25T10:40:04.604Z,6.20
2018-07-25T10:42:32.985Z,6.37
2018-07-25T10:45:01.422Z,6.87
2018-07-25T10:47:30.048Z,6.33
2018-07-25T10:49:58.422Z,6.80
2018-07-25T10:52:26.750Z,6.77
2018-07-25T10:54:55.066Z,10.73
2018-07-25T10:57:23.374Z,6.80
2018-07-25T10:59:51.714Z,5.87
2018-07-25T11:02:20.084Z,6.03
2018-07-25T11:04:48.122Z,7.07
2018-07-25T11:07:16.455Z,5.50
2018-07-25T11:09:45.175Z,6.43
2018-07-25T11:12:13.662Z,5.50
2018-07-25T11:14:42.099Z,6.57
2018-07-25T11:17:10.736Z,6.80
2018-07-25T11:19:38.983Z,6.27
2018-07-25T11:22:07.390Z,6.93
2018-07-25T11:24:35.712Z,6.70
2018-07-25T11:27:04.208Z,6.10
2018-07-25T11:29:32.563Z,4.87
2018-07-25T11:32:00.938Z,6.73
2018-07-25T11:34:29.235Z,6.53
2018-07-25T11:36:57.564Z,6.83
2018-07-25T11:39:25.870Z,6.83
2018-07-25T11:41:53.946Z,7.23
2018-07-25T11:44:22.115Z,6.77
2018-07-25T11:46:50.428Z,5.33
2018-07-25T11:49:18.959Z,6.33
2018-07-25T11:51:47.234Z,5.60
2018-07-25T11:54:15.637Z,5.17
2018-07-25T11:56:43.931Z,5.03
2018-07-25T11:59:12.276Z,5.07
2018-07-25T12:01:40.618Z,6.60
2018-07-25T12:04:08.904Z,5.07
2018-07-25T12:06:37.276Z,4.83
2018-07-25T12:09:08.380Z,5.73
2018-07-25T12:11:40.917Z,5.30
2018-07-25T12:14:09.189Z,6.83
2018-07-25T12:16:37.537Z,5.27
2018-07-25T12:19:05.877Z,8.57
2018-07-25T12:21:34.177Z,5.20
2018-07-25T12:24:02.538Z,4.87
2018-07-25T12:26:31.009Z,5.23
2018-07-25T12:28:59.319Z,5.40
2018-07-25T12:31:28.039Z,8.83
2018-07-25T12:33:56.367Z,5.10
2018-07-25T12:36:24.930Z,4.90
2018-07-25T12:38:53.207Z,5.83
2018-07-25T12:41:21.620Z,6.50
2018-07-25T12:43:50.152Z,6.60
2018-07-25T12:46:18.587Z,5.03
2018-07-25T12:48:46.939Z,5.10
2018-07-25T12:51:15.233Z,5.23
2018-07-25T12:53:43.588Z,4.70
2018-07-25T12:56:11.922Z,6.83
2018-07-25T12:58:40.351Z,5.33
2018-07-25T13:01:08.823Z,4.13
2018-07-25T13:03:37.265Z,4.70
2018-07-25T13:06:05.965Z,4.13
2018-07-25T13:08:34.331Z,5.20
2018-07-25T13:11:02.851Z,5.37
2018-07-25T13:13:31.259Z,5.83
2018-07-25T13:15:59.625Z,5.27
2018-07-25T13:18:28.173Z,4.40
2018-07-25T13:20:56.571Z,4.67
2018-07-25T13:23:24.951Z,4.80
2018-07-25T13:25:53.482Z,4.30
2018-07-25T13:28:21.872Z,6.27
2018-07-25T13:30:50.159Z,5.23
2018-07-25T13:33:18.461Z,5.70
2018-07-25T13:35:46.856Z,3.93
2018-07-25T13:38:15.216Z,4.93
2018-07-25T13:40:43.864Z,3.97
2018-07-25T13:43:12.197Z,7.70
2018-07-25T13:45:40.651Z,6.47
2018-07-25T13:48:08.935Z,4.13
2018-07-25T13:50:37.264Z,5.60
2018-07-25T13:53:05.839Z,4.67
2018-07-25T13:55:40.685Z,3.63
2018-07-25T13:58:09.089Z,3.93
2018-07-25T14:00:37.483Z,4.00
2018-07-25T14:03:05.981Z,4.67
2018-07-25T14:05:34.647Z,3.50
2018-07-25T14:08:03.001Z,4.70
2018-07-25T14:10:31.423Z,5.50
2018-07-25T14:12:59.784Z,5.23
2018-07-25T14:15:28.179Z,4.33
2018-07-25T14:17:56.753Z,4.30
2018-07-25T14:20:25.367Z,8.30
2018-07-25T14:22:53.751Z,7.00
2018-07-25T14:25:21.935Z,7.90
2018-07-25T14:27:50.424Z,11.87
2018-07-25T14:30:18.859Z,8.73
2018-07-25T14:32:47.349Z,3.90
2018-07-25T14:35:15.419Z,4.07
2018-07-25T14:37:43.981Z,5.60
2018-07-25T14:40:12.430Z,4.57
2018-07-25T14:42:40.709Z,3.50
2018-07-25T14:45:09.110Z,3.50
2018-07-25T14:47:37.468Z,7.10
2018-07-25T14:50:06.994Z,4.87
2018-07-25T14:52:35.444Z,4.83
2018-07-25T14:55:03.891Z,4.57
2018-07-25T14:57:32.224Z,7.53
2018-07-25T15:00:00.544Z,6.60
2018-07-25T15:02:28.964Z,5.37
2018-07-25T15:04:57.377Z,6.73
2018-07-25T15:07:25.859Z,3.53
2018-07-25T15:09:54.219Z,4.73
2018-07-25T15:12:27.872Z,3.50
2018-07-25T15:14:56.221Z,3.97
2018-07-25T15:17:24.597Z,4.53
2018-07-25T15:19:52.938Z,3.83
2018-07-25T15:22:21.305Z,4.53
2018-07-25T15:24:49.620Z,6.87
2018-07-25T15:27:18.173Z,3.73
2018-07-25T15:29:46.553Z,5.20
2018-07-25T15:32:14.880Z,4.70
2018-07-25T15:34:43.205Z,4.00
2018-07-25T15:37:11.591Z,4.03
2018-07-25T15:39:39.884Z,3.70
2018-07-25T15:42:08.388Z,3.67
2018-07-25T15:44:36.845Z,6.77
2018-07-25T15:47:05.197Z,5.17
2018-07-25T15:49:33.497Z,3.23
2018-07-25T15:52:01.854Z,5.70
2018-07-25T15:54:30.275Z,3.77
2018-07-25T15:56:58.573Z,4.20
2018-07-25T15:59:27.009Z,5.13
2018-07-25T16:01:55.463Z,3.60
2018-07-25T16:04:23.797Z,3.10
2018-07-25T16:06:52.149Z,3.30
2018-07-25T16:09:20.463Z,3.73
2018-07-25T16:11:48.597Z,5.53
2018-07-25T16:14:16.927Z,3.13
2018-07-25T16:16:45.260Z,3.20
2018-07-25T16:19:13.626Z,2.90
2018-07-25T16:21:42.315Z,3.40
2018-07-25T16:24:10.701Z,3.07
2018-07-25T16:26:39.074Z,3.03
2018-07-25T16:29:07.443Z,4.23
2018-07-25T16:31:35.807Z,2.90
2018-07-25T16:34:04.152Z,4.17
2018-07-25T16:36:32.498Z,2.80
2018-07-25T16:39:00.927Z,2.60
2018-07-25T16:41:29.270Z,5.47
2018-07-25T16:43:57.615Z,3.20
2018-07-25T16:46:25.981Z,3.23
2018-07-25T16:48:54.365Z,3.03
2018-07-25T16:51:22.669Z,4.27
2018-07-25T16:53:51.054Z,2.53
2018-07-25T16:56:19.393Z,5.33
2018-07-25T16:58:47.794Z,3.07
2018-07-25T17:01:16.165Z,2.57
2018-07-25T17:03:44.710Z,4.07
2018-07-25T17:06:13.031Z,3.47
2018-07-25T17:08:41.411Z,3.47
2018-07-25T17:11:09.769Z,3.27
2018-07-25T17:13:38.235Z,5.07
2018-07-25T17:16:06.534Z,3.20
2018-07-25T17:18:34.880Z,3.07
2018-07-25T17:21:03.192Z,3.00
2018-07-25T17:23:31.571Z,5.00
2018-07-25T17:25:59.931Z,2.87
2018-07-25T17:28:28.296Z,5.43
2018-07-25T17:30:56.620Z,2.83
2018-07-25T17:33:25.109Z,3.27
2018-07-25T17:35:53.669Z,2.40
2018-07-25T17:38:22.039Z,3.57
2018-07-25T17:40:50.455Z,3.00
2018-07-25T17:43:18.811Z,3.37
2018-07-25T17:45:47.393Z,3.27
2018-07-25T17:48:15.729Z,2.70
2018-07-25T17:50:44.307Z,3.90
2018-07-25T17:53:12.696Z,2.53
2018-07-25T17:55:40.993Z,4.10
2018-07-25T17:58:09.389Z,2.70
2018-07-25T18:00:37.771Z,7.43
2018-07-25T18:03:06.261Z,3.17
2018-07-25T18:05:41.220Z,3.13
2018-07-25T18:08:09.295Z,4.97
2018-07-25T18:10:37.359Z,2.70
2018-07-25T18:13:11.010Z,3.43
2018-07-25T18:15:39.526Z,3.03
2018-07-25T18:18:07.815Z,3.17
2018-07-25T18:20:36.207Z,3.23
2018-07-25T18:23:04.529Z,3.87
2018-07-25T18:25:32.917Z,2.93
2018-07-25T18:28:01.247Z,3.17
2018-07-25T18:30:29.666Z,3.10
2018-07-25T18:32:57.993Z,3.90
2018-07-25T18:35:26.367Z,4.90
2018-07-25T18:37:54.775Z,3.60
2018-07-25T18:40:23.059Z,6.50
2018-07-25T18:42:51.395Z,3.80
2018-07-25T18:45:19.729Z,5.33
2018-07-25T18:47:48.069Z,4.77
2018-07-25T18:50:16.550Z,4.37
2018-07-25T18:52:44.761Z,5.13
2018-07-25T18:55:13.137Z,4.23
2018-07-25T18:57:41.560Z,6.23
2018-07-25T19:00:10.480Z,6.20
2018-07-25T19:02:38.681Z,4.30
2018-07-25T19:05:07.004Z,4.07
2018-07-25T19:07:35.411Z,4.43
2018-07-25T19:10:03.720Z,4.10
2018-07-25T19:12:32.160Z,3.97
2018-07-25T19:15:05.879Z,4.53
2018-07-25T19:17:34.480Z,5.53
2018-07-25T19:20:02.912Z,5.23
2018-07-25T19:22:31.249Z,4.27
2018-07-25T19:24:59.862Z,3.57
2018-07-25T19:27:28.504Z,3.67
2018-07-25T19:29:57.029Z,5.10
2018-07-25T19:32:25.452Z,7.90
2018-07-25T19:34:53.990Z,4.13
2018-07-25T19:37:22.307Z,4.33
2018-07-25T19:39:50.730Z,4.23
2018-07-25T19:42:19.074Z,6.43
2018-07-25T19:44:47.406Z,5.07
2018-07-25T19:47:15.735Z,5.27
2018-07-25T19:49:44.071Z,3.93
2018-07-25T19:52:12.367Z,4.23
2018-07-25T19:54:40.670Z,6.57
2018-07-25T19:57:09.039Z,5.17
2018-07-25T19:59:37.342Z,4.47
2018-07-25T20:02:05.893Z,4.10
2018-07-25T20:04:34.291Z,6.87
2018-07-25T20:07:02.729Z,3.80
2018-07-25T20:09:31.078Z,4.13
2018-07-25T20:11:59.713Z,6.43
2018-07-25T20:14:33.591Z,7.57
2018-07-25T20:17:01.964Z,5.90
2018-07-25T20:19:30.304Z,4.80
2018-07-25T20:21:58.590Z,6.77
2018-07-25T20:24:27.011Z,6.47
2018-07-25T20:26:55.343Z,6.50
2018-07-25T20:29:23.655Z,5.10
2018-07-25T20:31:51.965Z,3.60
2018-07-25T20:34:20.417Z,5.80
2018-07-25T20:36:48.792Z,4.20
2018-07-25T20:39:17.004Z,4.73
2018-07-25T20:41:45.404Z,4.50
2018-07-25T20:44:13.713Z,4.30
2018-07-25T20:46:42.015Z,6.30
2018-07-25T20:49:10.334Z,5.20
2018-07-25T20:51:39.076Z,6.40
2018-07-25T20:54:07.422Z,6.27
2018-07-25T20:56:35.718Z,7.13
2018-07-25T20:59:04.097Z,4.90
2018-07-25T21:01:32.634Z,7.20
2018-07-25T21:04:01.198Z,5.90
2018-07-25T21:06:29.520Z,5.57
2018-07-25T21:08:57.794Z,6.83
2018-07-25T21:11:26.134Z,9.33
2018-07-25T21:13:54.427Z,5.10
2018-07-25T21:16:22.757Z,11.90
2018-07-25T21:18:51.146Z,6.47
2018-07-25T21:21:19.573Z,6.93
2018-07-25T21:23:48.021Z,5.83
2018-07-25T21:26:16.346Z,8.73
2018-07-25T21:28:44.667Z,6.00
2018-07-25T21:31:12.958Z,8.80
2018-07-25T21:33:41.288Z,6.60
2018-07-25T21:36:09.598Z,8.93
2018-07-25T21:38:37.926Z,7.53
2018-07-25T21:41:06.342Z,8.27
2018-07-25T21:43:34.674Z,7.73
2018-07-25T21:46:03.272Z,11.53
2018-07-25T21:48:31.574Z,9.57
2018-07-25T21:50:59.934Z,12.57
2018-07-25T21:53:28.250Z,9.97
2018-07-25T21:55:56.864Z,9.13
2018-07-25T21:58:25.204Z,10.30
2018-07-25T22:00:56.728Z,9.97
2018-07-25T22:03:25.066Z,11.03
2018-07-25T22:05:53.524Z,11.43
2018-07-25T22:08:21.854Z,12.77
2018-07-25T22:10:50.247Z,10.77
2018-07-25T22:13:18.282Z,12.47
2018-07-25T22:15:46.625Z,11.83
2018-07-25T22:18:14.945Z,12.83
2018-07-25T22:20:43.280Z,14.23
2018-07-25T22:23:11.612Z,11.73
2018-07-25T22:25:39.896Z,15.43
2018-07-25T22:28:08.215Z,12.30
2018-07-25T22:30:36.593Z,12.13
2018-07-25T22:33:04.908Z,11.47
2018-07-25T22:35:33.279Z,11.90
2018-07-25T22:38:01.597Z,12.03
2018-07-25T22:40:30.049Z,12.33
2018-07-25T22:42:58.421Z,12.50
2018-07-25T22:45:26.945Z,13.53
2018-07-25T22:47:55.245Z,14.73
2018-07-25T22:50:23.659Z,13.13
2018-07-25T22:52:51.972Z,13.60
2018-07-25T22:55:20.167Z,15.00
2018-07-25T22:57:48.454Z,12.93
2018-07-25T23:00:16.740Z,13.10
2018-07-25T23:02:45.105Z,13.83
2018-07-25T23:05:13.574Z,12.63
2018-07-25T23:07:41.871Z,14.50
2018-07-25T23:10:10.133Z,13.90
2018-07-25T23:12:38.584Z,15.33
2018-07-25T23:15:06.918Z,14.27
2018-07-25T23:17:35.227Z,15.87
2018-07-25T23:20:03.568Z,18.23
2018-07-25T23:22:41.811Z,15.00
2018-07-25T23:25:10.451Z,16.80
2018-07-25T23:27:38.766Z,18.20
2018-07-25T23:30:07.201Z,15.83
2018-07-25T23:32:35.571Z,18.93
2018-07-25T23:35:03.975Z,13.63
2018-07-25T23:37:32.681Z,16.87
2018-07-25T23:40:01.042Z,17.23
2018-07-25T23:42:29.416Z,13.63
2018-07-25T23:44:57.750Z,14.07
2018-07-25T23:47:26.072Z,17.17
2018-07-25T23:49:54.400Z,15.43
2018-07-25T23:52:22.443Z,14.10
2018-07-25T23:54:50.725Z,19.67
2018-07-25T23:57:19.029Z,15.97
2018-07-25T23:59:47.405Z,15.37
